createdAt,value
2023-01-17T00:04:21.989Z,14.50
2023-01-17T00:08:43.972Z,14.80
2023-01-17T00:12:53.852Z,15.90
2023-01-17T00:16:57.209Z,16.40
2023-01-17T00:21:19.063Z,15.50
2023-01-17T00:25:47.705Z,16.10
2023-01-17T00:29:51.056Z,14.50
2023-01-17T00:33:54.362Z,14.30
2023-01-17T00:38:09.103Z,15.20
2023-01-17T00:42:12.392Z,14.80
2023-01-17T00:46:34.443Z,14.80
2023-01-17T00:50:57.142Z,14.40
2023-01-17T00:55:19.262Z,12.00
2023-01-17T00:59:41.659Z,13.60
2023-01-17T01:04:03.611Z,14.50
2023-01-17T01:08:55.123Z,13.10
2023-01-17T01:13:17.200Z,13.70
2023-01-17T01:17:39.443Z,14.00
2023-01-17T01:22:02.482Z,14.00
2023-01-17T01:26:24.588Z,13.70
2023-01-17T01:30:46.644Z,13.40
2023-01-17T01:34:49.970Z,13.40
2023-01-17T01:38:54.782Z,13.60
2023-01-17T01:43:00.468Z,13.80
2023-01-17T01:47:05.312Z,12.90
2023-01-17T01:51:13.807Z,12.00
2023-01-17T01:55:27.333Z,12.90
2023-01-17T01:59:33.491Z,15.20
2023-01-17T02:03:40.711Z,12.40
2023-01-17T02:07:52.129Z,12.40
2023-01-17T02:11:56.128Z,10.00
2023-01-17T02:16:36.677Z,11.00
2023-01-17T02:21:06.142Z,11.50
2023-01-17T02:25:31.593Z,9.70
2023-01-17T02:29:55.091Z,9.60
2023-01-17T02:34:15.679Z,9.40
2023-01-17T02:38:49.819Z,8.60
2023-01-17T02:43:06.042Z,9.00
2023-01-17T02:47:22.072Z,8.60
2023-01-17T02:51:56.608Z,7.70
2023-01-17T02:56:32.575Z,8.40
2023-01-17T03:00:52.806Z,8.10
2023-01-17T03:05:04.903Z,8.60
2023-01-17T03:09:10.701Z,7.90
2023-01-17T03:13:14.479Z,8.40
2023-01-17T03:17:18.133Z,6.80
2023-01-17T03:21:24.019Z,8.00
2023-01-17T03:25:27.549Z,8.60
2023-01-17T03:29:32.728Z,7.10
2023-01-17T03:33:37.409Z,9.00
2023-01-17T03:37:44.324Z,8.10
2023-01-17T03:41:48.717Z,8.70
2023-01-17T03:45:55.253Z,7.40
2023-01-17T03:49:58.774Z,8.50
2023-01-17T03:54:04.928Z,8.20
2023-01-17T03:58:10.722Z,8.30
2023-01-17T04:02:15.143Z,7.70
2023-01-17T04:06:19.267Z,7.80
2023-01-17T04:10:23.439Z,8.00
2023-01-17T04:14:27.805Z,7.10
2023-01-17T04:18:31.232Z,7.00
2023-01-17T04:22:34.740Z,7.70
2023-01-17T04:26:38.131Z,7.60
2023-01-17T04:30:42.163Z,6.10
2023-01-17T04:34:45.836Z,7.50
2023-01-17T04:38:49.280Z,6.80
2023-01-17T04:42:54.525Z,7.10
2023-01-17T04:46:57.978Z,7.30
2023-01-17T04:51:06.259Z,7.00
2023-01-17T04:55:16.791Z,7.30
2023-01-17T04:59:20.327Z,7.60
2023-01-17T05:03:25.424Z,7.30
2023-01-17T05:07:29.698Z,7.50
2023-01-17T05:11:34.587Z,7.10
2023-01-17T05:15:43.787Z,8.10
2023-01-17T05:19:48.705Z,7.70
2023-01-17T05:23:52.871Z,7.40
2023-01-17T05:28:05.938Z,7.60
2023-01-17T05:32:19.092Z,7.40
2023-01-17T05:36:29.180Z,8.10
2023-01-17T05:40:35.997Z,7.20
2023-01-17T05:44:39.736Z,8.30
2023-01-17T05:48:43.413Z,7.60
2023-01-17T05:53:01.782Z,8.10
2023-01-17T05:57:11.761Z,8.20
2023-01-17T06:01:15.513Z,8.10
2023-01-17T06:05:19.838Z,8.00
2023-01-17T06:09:23.351Z,7.50
2023-01-17T06:13:27.476Z,7.30
2023-01-17T06:17:31.972Z,7.40
2023-01-17T06:21:41.835Z,7.90
2023-01-17T06:25:52.103Z,7.80
2023-01-17T06:29:57.257Z,7.30
2023-01-17T06:34:06.026Z,7.30
2023-01-17T06:38:20.449Z,8.20
2023-01-17T06:42:24.158Z,8.30
2023-01-17T06:46:31.962Z,6.90
2023-01-17T06:50:35.772Z,7.30
2023-01-17T06:54:40.060Z,8.30
2023-01-17T06:58:44.145Z,7.80
2023-01-17T07:02:54.348Z,7.90
2023-01-17T07:07:04.773Z,7.90
2023-01-17T07:11:09.331Z,7.60
2023-01-17T07:15:15.047Z,7.00
2023-01-17T07:19:18.745Z,7.60
2023-01-17T07:23:27.337Z,8.10
2023-01-17T07:27:33.536Z,7.10
2023-01-17T07:31:44.593Z,6.20
2023-01-17T07:35:48.046Z,6.90
2023-01-17T07:39:51.558Z,7.80
2023-01-17T07:43:56.384Z,6.30
2023-01-17T07:47:59.966Z,6.70
2023-01-17T07:52:10.259Z,6.40
2023-01-17T07:56:13.906Z,7.20
2023-01-17T08:00:18.443Z,6.80
2023-01-17T08:04:26.479Z,7.20
2023-01-17T08:08:30.159Z,7.00
2023-01-17T08:12:39.149Z,6.70
2023-01-17T08:16:43.445Z,6.70
2023-01-17T08:20:47.082Z,7.80
2023-01-17T08:24:50.845Z,6.70
2023-01-17T08:29:00.746Z,6.30
2023-01-17T08:33:04.365Z,7.30
2023-01-17T08:37:07.952Z,6.60
2023-01-17T08:41:13.208Z,7.40
2023-01-17T08:45:16.825Z,7.50
2023-01-17T08:49:23.199Z,7.10
2023-01-17T08:53:26.689Z,6.30
2023-01-17T08:57:31.793Z,5.90
2023-01-17T09:01:46.751Z,6.10
2023-01-17T09:06:05.798Z,6.70
2023-01-17T09:10:09.828Z,6.80
2023-01-17T09:14:13.984Z,6.90
2023-01-17T09:18:17.718Z,6.80
2023-01-17T09:22:21.361Z,7.50
2023-01-17T09:26:27.246Z,7.00
2023-01-17T09:30:30.714Z,6.50
2023-01-17T09:34:34.204Z,6.80
2023-01-17T09:38:38.067Z,6.70
2023-01-17T09:42:42.500Z,6.70
2023-01-17T09:46:49.128Z,6.90
2023-01-17T09:51:05.108Z,6.70
2023-01-17T09:55:14.927Z,7.30
2023-01-17T09:59:34.977Z,6.80
2023-01-17T10:03:58.058Z,7.40
2023-01-17T10:08:24.272Z,6.40
2023-01-17T10:12:40.060Z,6.80
2023-01-17T10:16:52.828Z,8.40
2023-01-17T10:21:27.627Z,7.20
2023-01-17T10:25:52.586Z,5.90
2023-01-17T10:29:56.436Z,7.40
2023-01-17T10:34:45.692Z,7.30
2023-01-17T10:39:11.929Z,7.10
2023-01-17T10:43:41.730Z,7.30
2023-01-17T10:47:51.178Z,6.90
2023-01-17T10:52:32.495Z,7.60
2023-01-17T10:56:40.611Z,7.30
2023-01-17T11:00:49.802Z,7.60
2023-01-17T11:04:58.618Z,7.60
2023-01-17T11:13:31.380Z,8.50
2023-01-17T11:18:02.340Z,7.40
2023-01-17T11:22:08.715Z,7.10
2023-01-17T11:26:52.402Z,7.30
2023-01-17T11:31:25.962Z,7.80
2023-01-17T11:35:38.693Z,7.50
2023-01-17T11:39:45.464Z,7.60
2023-01-17T11:44:04.643Z,8.30
2023-01-17T11:48:08.614Z,7.50
2023-01-17T11:52:37.731Z,6.70
2023-01-17T11:56:47.367Z,7.80
2023-01-17T12:01:36.418Z,6.50
2023-01-17T12:06:12.133Z,7.20
2023-01-17T12:10:44.209Z,8.70
2023-01-17T12:15:48.332Z,8.70
2023-01-17T12:19:51.931Z,9.10
2023-01-17T12:24:39.939Z,9.60
2023-01-17T12:29:52.612Z,10.00
2023-01-17T12:34:18.355Z,8.50
2023-01-17T12:38:39.615Z,7.80
2023-01-17T12:43:29.617Z,8.80
2023-01-17T12:47:40.983Z,9.40
2023-01-17T12:51:51.826Z,9.90
2023-01-17T12:56:27.320Z,8.40
2023-01-17T13:00:39.374Z,8.00
2023-01-17T13:05:42.610Z,8.40
2023-01-17T13:09:57.127Z,8.10
2023-01-17T13:14:23.704Z,9.20
2023-01-17T13:18:31.231Z,7.50
2023-01-17T13:22:38.300Z,8.30
2023-01-17T13:27:25.551Z,9.30
2023-01-17T13:32:00.895Z,8.70
2023-01-17T13:36:25.655Z,8.90
2023-01-17T13:41:02.647Z,10.30
2023-01-17T13:45:33.740Z,9.80
2023-01-17T13:50:02.708Z,8.30
2023-01-17T13:54:18.015Z,8.20
2023-01-17T13:59:15.437Z,8.20
2023-01-17T14:03:49.939Z,7.20
2023-01-17T14:08:21.514Z,8.70
2023-01-17T14:12:46.051Z,7.60
2023-01-17T14:16:59.190Z,8.00
2023-01-17T14:21:29.738Z,7.30
2023-01-17T14:25:46.417Z,8.20
2023-01-17T14:30:05.722Z,8.50
2023-01-17T14:34:31.120Z,9.50
2023-01-17T14:38:43.132Z,8.70
2023-01-17T14:43:02.021Z,7.30
2023-01-17T14:47:20.431Z,8.30
2023-01-17T14:51:43.464Z,8.00
2023-01-17T14:56:15.308Z,8.80
2023-01-17T15:00:42.351Z,8.40
2023-01-17T15:05:00.044Z,9.30
2023-01-17T15:09:53.198Z,7.50
2023-01-17T15:14:08.351Z,8.00
2023-01-17T15:18:39.085Z,7.00
2023-01-17T15:23:29.567Z,8.90
2023-01-17T15:27:40.483Z,8.20
2023-01-17T15:32:14.370Z,8.90
2023-01-17T15:36:52.787Z,9.10
2023-01-17T15:41:17.000Z,9.40
2023-01-17T15:45:37.902Z,8.10
2023-01-17T15:49:55.401Z,28.80
2023-01-17T15:54:15.869Z,17.00
